Airfield :
LOGIN :

Register | Disclaimer

   EN    FR    IT 

 










Legend :    VFR   Marginal VFR   IFR   Intensive IFR   Very Intensive IFR
Visi :
Ceiling :
>= 8 km
>= 3000ft
5 to 8 km
1000 to 3000 ft
1500m to 5 km
500 to 1000 ft
800 to 1500m
200 to 500 ft
< 800m
< 200 ft
Symbols :   Thunderstorms  Fog  Heavy snow  Heavy precipitations  Wind > 20 kt
SIGMETs :     Misc.  Thunderstorms  Icing  Turbulence  Mountain Waves  Volcanic Ashes






- Airport Elevation : 1768 ft


LEHC - Huesca Pirineos

CURRENT METAR :
  • 262000Z AUTO VRB04KT CAVOK 05/03 Q1022

EXPIRED METARs :
  • 261930Z AUTO 28005KT CAVOK 06/04 Q1022
  • 261900Z AUTO 26005KT CAVOK 06/03 Q1021
  • 261830Z AUTO 27006KT CAVOK 07/04 Q1021
  • 261800Z AUTO 26006KT CAVOK 07/05 Q1021
  • 261730Z AUTO 25004KT 9999 SCT041 08/05 Q1020

TAF TAF LEHC
Valid from the 26 at 15:00 until the 27 at 15:00 UTC


261400Z 2615/2715 28010KT 9999 FEW015 TX09/2714Z TN01/2707Z
BECMG 2617/2619 VRB03KT
PROB40
TEMPO 2623/2712 3000 BR BKN007
PROB40
TEMPO 2702/2710 0200 FG VV001



MET'MAP, your aeronautical weather chart ! - Copyright ORBIFLY December 2007 - Disclaimer

ORBIFLY MET'MAP TEAM :

Programming & Development : Alexandra Zaïnal
Concept & original design : Baudouin d'Aumeries
Assistance for programming : Marc-Olivier Méhu
Technical & hardware support : Manuel Goepfert

Contact : metmap@orbifly.com




SOURCES & CREDITS :

   NOAA